sensor_id;sensor_type;location;lat;lon;timestamp;pressure;altitude;pressure_sealevel;temperature;humidity
43486;BME280;30447;48.742;8.972;2024-03-25T00:01:05;96050.56;;;4.72;95.17
43486;BME280;30447;48.742;8.972;2024-03-25T00:03:32;96048.81;;;4.68;95.33
43486;BME280;30447;48.742;8.972;2024-03-25T00:05:59;96051.34;;;4.67;94.61
43486;BME280;30447;48.742;8.972;2024-03-25T00:08:25;96051.28;;;4.57;95.88
43486;BME280;30447;48.742;8.972;2024-03-25T00:10:52;96044.78;;;4.98;93.88
43486;BME280;30447;48.742;8.972;2024-03-25T00:13:19;96045.59;;;4.91;93.96
43486;BME280;30447;48.742;8.972;2024-03-25T00:15:46;96041.16;;;4.76;94.08
43486;BME280;30447;48.742;8.972;2024-03-25T00:18:13;96042.09;;;4.84;93.68
43486;BME280;30447;48.742;8.972;2024-03-25T00:20:39;96043.72;;;4.71;94.23
43486;BME280;30447;48.742;8.972;2024-03-25T00:23:06;96043.66;;;4.65;94.33
43486;BME280;30447;48.742;8.972;2024-03-25T00:25:33;96038.47;;;4.60;94.50
43486;BME280;30447;48.742;8.972;2024-03-25T00:28:00;96034.22;;;4.61;94.66
43486;BME280;30447;48.742;8.972;2024-03-25T00:30:26;96033.25;;;4.49;94.75
43486;BME280;30447;48.742;8.972;2024-03-25T00:32:53;96033.31;;;4.59;94.47
43486;BME280;30447;48.742;8.972;2024-03-25T00:35:20;96040.03;;;4.43;95.27
43486;BME280;30447;48.742;8.972;2024-03-25T00:37:46;96036.50;;;4.33;95.44
43486;BME280;30447;48.742;8.972;2024-03-25T00:40:13;96040.84;;;4.42;95.46
43486;BME280;30447;48.742;8.972;2024-03-25T00:42:39;96030.66;;;4.46;94.57
43486;BME280;30447;48.742;8.972;2024-03-25T00:45:06;96024.78;;;4.58;93.99
43486;BME280;30447;48.742;8.972;2024-03-25T00:47:34;96037.53;;;4.49;93.61
43486;BME280;30447;48.742;8.972;2024-03-25T00:50:00;96040.06;;;4.46;94.33
43486;BME280;30447;48.742;8.972;2024-03-25T00:52:27;96034.09;;;4.47;93.49
43486;BME280;30447;48.742;8.972;2024-03-25T00:54:54;96032.09;;;4.18;94.85
43486;BME280;30447;48.742;8.972;2024-03-25T00:57:20;96028.03;;;4.40;93.45
43486;BME280;30447;48.742;8.972;2024-03-25T00:59:47;96028.00;;;4.37;93.65
43486;BME280;30447;48.742;8.972;2024-03-25T01:02:13;96025.31;;;4.26;93.73
43486;BME280;30447;48.742;8.972;2024-03-25T01:08:18;96017.75;;;4.37;93.40
43486;BME280;30447;48.742;8.972;2024-03-25T01:10:46;96016.84;;;4.32;93.26
43486;BME280;30447;48.742;8.972;2024-03-25T01:13:12;96008.41;;;4.44;92.89
43486;BME280;30447;48.742;8.972;2024-03-25T01:15:39;96007.59;;;4.49;92.15
43486;BME280;30447;48.742;8.972;2024-03-25T01:18:05;96001.22;;;4.12;94.09
43486;BME280;30447;48.742;8.972;2024-03-25T01:20:32;96004.63;;;4.06;94.72
43486;BME280;30447;48.742;8.972;2024-03-25T01:22:59;96004.63;;;4.09;95.00
43486;BME280;30447;48.742;8.972;2024-03-25T01:25:25;96002.13;;;4.14;94.63
43486;BME280;30447;48.742;8.972;2024-03-25T01:27:52;95995.41;;;4.27;93.89
43486;BME280;30447;48.742;8.972;2024-03-25T01:30:18;95996.28;;;4.27;94.08
43486;BME280;30447;48.742;8.972;2024-03-25T01:32:45;96000.44;;;4.17;94.60
43486;BME280;30447;48.742;8.972;2024-03-25T01:35:15;95998.03;;;4.30;93.58
43486;BME280;30447;48.742;8.972;2024-03-25T01:37:41;95991.22;;;4.33;93.39
43486;BME280;30447;48.742;8.972;2024-03-25T01:40:08;95999.69;;;4.28;92.94
43486;BME280;30447;48.742;8.972;2024-03-25T01:42:38;96001.28;;;4.15;94.03
43486;BME280;30447;48.742;8.972;2024-03-25T01:45:05;95994.66;;;4.37;93.02
43486;BME280;30447;48.742;8.972;2024-03-25T01:47:32;96001.50;;;4.40;92.98
43486;BME280;30447;48.742;8.972;2024-03-25T01:50:01;96008.53;;;4.59;92.08
43486;BME280;30447;48.742;8.972;2024-03-25T01:52:30;96007.37;;;4.26;93.78
43486;BME280;30447;48.742;8.972;2024-03-25T01:54:57;96005.16;;;4.65;92.06
43486;BME280;30447;48.742;8.972;2024-03-25T01:57:24;96010.38;;;4.73;91.65
43486;BME280;30447;48.742;8.972;2024-03-25T01:59:53;96006.63;;;4.38;93.16
43486;BME280;30447;48.742;8.972;2024-03-25T02:02:20;96005.88;;;4.50;92.97
43486;BME280;30447;48.742;8.972;2024-03-25T02:04:46;96009.16;;;4.36;93.36
43486;BME280;30447;48.742;8.972;2024-03-25T02:07:14;96008.34;;;4.36;94.17
43486;BME280;30447;48.742;8.972;2024-03-25T02:09:41;96009.13;;;4.32;93.48
43486;BME280;30447;48.742;8.972;2024-03-25T02:12:08;96008.69;;;4.81;91.89
43486;BME280;30447;48.742;8.972;2024-03-25T02:14:36;96007.72;;;4.67;91.61
43486;BME280;30447;48.742;8.972;2024-03-25T02:17:02;96004.41;;;4.75;92.33
43486;BME280;30447;48.742;8.972;2024-03-25T02:19:31;96004.16;;;4.44;92.62
43486;BME280;30447;48.742;8.972;2024-03-25T02:21:58;95999.19;;;4.66;92.59
43486;BME280;30447;48.742;8.972;2024-03-25T02:24:26;96001.97;;;4.96;90.79
43486;BME280;30447;48.742;8.972;2024-03-25T02:26:54;95997.50;;;4.70;92.15
43486;BME280;30447;48.742;8.972;2024-03-25T02:29:20;96004.94;;;4.39;94.05
43486;BME280;30447;48.742;8.972;2024-03-25T02:31:47;96004.22;;;4.55;93.04
43486;BME280;30447;48.742;8.972;2024-03-25T02:34:14;96003.41;;;4.61;93.36
43486;BME280;30447;48.742;8.972;2024-03-25T02:36:41;96003.47;;;4.67;93.23
43486;BME280;30447;48.742;8.972;2024-03-25T02:39:07;96006.84;;;4.63;93.13
43486;BME280;30447;48.742;8.972;2024-03-25T02:41:36;96006.84;;;4.60;93.12
43486;BME280;30447;48.742;8.972;2024-03-25T02:44:03;95995.81;;;4.73;92.49
43486;BME280;30447;48.742;8.972;2024-03-25T02:46:29;95997.56;;;4.78;92.84
43486;BME280;30447;48.742;8.972;2024-03-25T02:48:56;95995.75;;;4.66;92.34
43486;BME280;30447;48.742;8.972;2024-03-25T02:51:23;95992.47;;;4.81;91.62
43486;BME280;30447;48.742;8.972;2024-03-25T02:53:49;95991.44;;;4.60;92.94
43486;BME280;30447;48.742;8.972;2024-03-25T02:56:16;95994.94;;;4.71;92.53
43486;BME280;30447;48.742;8.972;2024-03-25T02:58:42;95988.91;;;4.69;92.67
43486;BME280;30447;48.742;8.972;2024-03-25T03:01:09;95988.12;;;4.76;91.68
43486;BME280;30447;48.742;8.972;2024-03-25T03:03:35;95986.38;;;4.72;91.64
43486;BME280;30447;48.742;8.972;2024-03-25T03:06:02;95983.66;;;4.54;92.35
43486;BME280;30447;48.742;8.972;2024-03-25T03:08:29;95978.59;;;4.61;92.90
43486;BME280;30447;48.742;8.972;2024-03-25T03:10:55;95971.16;;;4.97;90.71
43486;BME280;30447;48.742;8.972;2024-03-25T03:13:22;95980.31;;;4.59;91.37
43486;BME280;30447;48.742;8.972;2024-03-25T03:15:48;95983.87;;;4.79;91.11
43486;BME280;30447;48.742;8.972;2024-03-25T03:18:15;95976.19;;;4.82;90.73
43486;BME280;30447;48.742;8.972;2024-03-25T03:20:42;95974.34;;;4.62;91.37
43486;BME280;30447;48.742;8.972;2024-03-25T03:23:08;95979.50;;;4.67;91.20
43486;BME280;30447;48.742;8.972;2024-03-25T03:25:35;95978.78;;;4.83;90.44
43486;BME280;30447;48.742;8.972;2024-03-25T03:28:01;95980.53;;;4.87;90.17
43486;BME280;30447;48.742;8.972;2024-03-25T03:30:28;95976.19;;;4.82;89.82
43486;BME280;30447;48.742;8.972;2024-03-25T03:32:55;95977.03;;;4.79;90.71
43486;BME280;30447;48.742;8.972;2024-03-25T03:35:21;95966.88;;;4.95;90.03
43486;BME280;30447;48.742;8.972;2024-03-25T03:37:48;95972.66;;;4.66;91.16
43486;BME280;30447;48.742;8.972;2024-03-25T03:40:15;95977.00;;;4.76;90.57
43486;BME280;30447;48.742;8.972;2024-03-25T03:42:41;95981.31;;;4.77;90.57
43486;BME280;30447;48.742;8.972;2024-03-25T03:45:08;95971.06;;;4.83;90.35
43486;BME280;30447;48.742;8.972;2024-03-25T03:47:35;95978.72;;;4.74;91.25
43486;BME280;30447;48.742;8.972;2024-03-25T03:50:01;95986.41;;;4.74;91.56
43486;BME280;30447;48.742;8.972;2024-03-25T03:52:28;95990.63;;;4.66;91.47
43486;BME280;30447;48.742;8.972;2024-03-25T03:54:54;96001.69;;;4.61;92.74
43486;BME280;30447;48.742;8.972;2024-03-25T03:57:21;96000.78;;;4.52;92.79
43486;BME280;30447;48.742;8.972;2024-03-25T03:59:48;96003.44;;;4.62;92.59
43486;BME280;30447;48.742;8.972;2024-03-25T04:02:14;96003.47;;;4.67;92.23
43486;BME280;30447;48.742;8.972;2024-03-25T04:04:41;96004.28;;;4.65;92.36
43486;BME280;30447;48.742;8.972;2024-03-25T04:07:07;96002.53;;;4.56;92.66
43486;BME280;30447;48.742;8.972;2024-03-25T04:09:34;96000.06;;;4.71;92.25
43486;BME280;30447;48.742;8.972;2024-03-25T04:12:00;95995.62;;;4.52;93.49
43486;BME280;30447;48.742;8.972;2024-03-25T04:14:27;95993.22;;;4.70;92.29
43486;BME280;30447;48.742;8.972;2024-03-25T04:16:54;95987.97;;;4.55;93.10
43486;BME280;30447;48.742;8.972;2024-03-25T04:19:24;95991.47;;;4.66;92.70
43486;BME280;30447;48.742;8.972;2024-03-25T04:21:51;95994.06;;;4.66;92.43
43486;BME280;30447;48.742;8.972;2024-03-25T04:24:19;95990.63;;;4.66;91.70
43486;BME280;30447;48.742;8.972;2024-03-25T04:26:46;95990.59;;;4.64;91.90
43486;BME280;30447;48.742;8.972;2024-03-25T04:29:14;95985.47;;;4.61;92.60
43486;BME280;30447;48.742;8.972;2024-03-25T04:31:42;95984.63;;;4.67;92.34
43486;BME280;30447;48.742;8.972;2024-03-25T04:34:08;95985.59;;;4.80;92.08
43486;BME280;30447;48.742;8.972;2024-03-25T04:36:35;95980.41;;;4.73;91.21
43486;BME280;30447;48.742;8.972;2024-03-25T04:39:02;95986.22;;;4.50;92.31
43486;BME280;30447;48.742;8.972;2024-03-25T04:41:29;95989.59;;;4.46;92.34
43486;BME280;30447;48.742;8.972;2024-03-25T04:43:55;95993.78;;;4.36;93.25
43486;BME280;30447;48.742;8.972;2024-03-25T04:46:22;95991.28;;;4.41;93.10
43486;BME280;30447;48.742;8.972;2024-03-25T04:48:48;95995.75;;;4.67;92.45
43486;BME280;30447;48.742;8.972;2024-03-25T04:51:15;96000.72;;;4.48;92.17
43486;BME280;30447;48.742;8.972;2024-03-25T04:53:42;95999.19;;;4.66;91.87
43486;BME280;30447;48.742;8.972;2024-03-25T04:56:08;95996.44;;;4.46;92.59
43486;BME280;30447;48.742;8.972;2024-03-25T04:58:35;95999.97;;;4.60;92.04
43486;BME280;30447;48.742;8.972;2024-03-25T05:01:02;96007.69;;;4.60;92.21
43486;BME280;30447;48.742;8.972;2024-03-25T05:03:28;96002.59;;;4.63;92.21
43486;BME280;30447;48.742;8.972;2024-03-25T05:05:55;96007.66;;;4.59;92.25
43486;BME280;30447;48.742;8.972;2024-03-25T05:08:22;96000.72;;;4.48;92.55
43486;BME280;30447;48.742;8.972;2024-03-25T05:10:50;96006.81;;;4.61;92.70
43486;BME280;30447;48.742;8.972;2024-03-25T05:13:16;96014.44;;;4.50;92.83
43486;BME280;30447;48.742;8.972;2024-03-25T05:15:52;96007.59;;;4.51;92.96
43486;BME280;30447;48.742;8.972;2024-03-25T05:18:19;96017.03;;;4.52;93.17
43486;BME280;30447;48.742;8.972;2024-03-25T05:20:45;96017.09;;;4.63;92.78
43486;BME280;30447;48.742;8.972;2024-03-25T05:23:12;96012.06;;;4.74;92.72
43486;BME280;30447;48.742;8.972;2024-03-25T05:25:38;96016.25;;;4.64;93.00
43486;BME280;30447;48.742;8.972;2024-03-25T05:28:05;96009.34;;;4.52;92.90
43486;BME280;30447;48.742;8.972;2024-03-25T05:30:33;96011.12;;;4.64;92.60
43486;BME280;30447;48.742;8.972;2024-03-25T05:33:00;96008.84;;;5.00;91.33
43486;BME280;30447;48.742;8.972;2024-03-25T05:35:26;96009.59;;;4.85;92.14
43486;BME280;30447;48.742;8.972;2024-03-25T05:37:54;96012.00;;;4.66;93.63
43486;BME280;30447;48.742;8.972;2024-03-25T05:40:20;96018.00;;;4.65;93.31
43486;BME280;30447;48.742;8.972;2024-03-25T05:42:47;96020.47;;;4.56;93.46
43486;BME280;30447;48.742;8.972;2024-03-25T05:45:13;96016.28;;;4.62;94.36
43486;BME280;30447;48.742;8.972;2024-03-25T05:47:41;96023.91;;;4.55;94.75
43486;BME280;30447;48.742;8.972;2024-03-25T05:50:07;96025.66;;;4.62;93.74
43486;BME280;30447;48.742;8.972;2024-03-25T05:52:34;96021.53;;;4.80;92.75
43486;BME280;30447;48.742;8.972;2024-03-25T05:55:01;96020.75;;;4.88;93.43
43486;BME280;30447;48.742;8.972;2024-03-25T05:57:28;96024.94;;;4.75;93.56
43486;BME280;30447;48.742;8.972;2024-03-25T05:59:55;96015.47;;;4.70;94.99
43486;BME280;30447;48.742;8.972;2024-03-25T06:02:21;96022.28;;;4.69;95.73
43486;BME280;30447;48.742;8.972;2024-03-25T06:04:48;96013.84;;;4.81;94.20
43486;BME280;30447;48.742;8.972;2024-03-25T06:07:15;96018.88;;;4.67;94.64
43486;BME280;30447;48.742;8.972;2024-03-25T06:09:41;96018.00;;;4.67;95.26
43486;BME280;30447;48.742;8.972;2024-03-25T06:12:08;96017.16;;;4.66;95.01
43486;BME280;30447;48.742;8.972;2024-03-25T06:14:34;96014.47;;;4.54;95.22
43486;BME280;30447;48.742;8.972;2024-03-25T06:17:01;96011.88;;;4.54;94.87
43486;BME280;30447;48.742;8.972;2024-03-25T06:19:28;96017.91;;;4.59;94.62
43486;BME280;30447;48.742;8.972;2024-03-25T06:21:54;96012.94;;;4.76;93.63
43486;BME280;30447;48.742;8.972;2024-03-25T06:24:21;96020.53;;;4.63;93.17
43486;BME280;30447;48.742;8.972;2024-03-25T06:26:48;96022.28;;;4.66;93.20
43486;BME280;30447;48.742;8.972;2024-03-25T06:29:14;96018.84;;;4.62;92.55
43486;BME280;30447;48.742;8.972;2024-03-25T06:31:41;96015.34;;;4.59;92.75
43486;BME280;30447;48.742;8.972;2024-03-25T06:34:26;96023.91;;;4.58;93.13
43486;BME280;30447;48.742;8.972;2024-03-25T06:36:52;96023.97;;;4.62;93.32
43486;BME280;30447;48.742;8.972;2024-03-25T06:39:19;96029.03;;;4.56;94.50
43486;BME280;30447;48.742;8.972;2024-03-25T06:41:45;96031.72;;;4.72;93.18
43486;BME280;30447;48.742;8.972;2024-03-25T06:44:12;96030.84;;;4.70;93.59
43486;BME280;30447;48.742;8.972;2024-03-25T06:46:39;96025.66;;;4.60;93.47
43486;BME280;30447;48.742;8.972;2024-03-25T06:49:05;96029.09;;;4.62;93.53
43486;BME280;30447;48.742;8.972;2024-03-25T06:51:32;96033.25;;;4.51;94.45
43486;BME280;30447;48.742;8.972;2024-03-25T06:53:59;96033.44;;;4.71;93.21
43486;BME280;30447;48.742;8.972;2024-03-25T06:56:25;96038.53;;;4.68;93.40
43486;BME280;30447;48.742;8.972;2024-03-25T06:58:52;96036.06;;;4.74;93.62
43486;BME280;30447;48.742;8.972;2024-03-25T07:01:19;96041.25;;;4.85;93.19
43486;BME280;30447;48.742;8.972;2024-03-25T07:03:45;96043.06;;;4.97;93.82
43486;BME280;30447;48.742;8.972;2024-03-25T07:06:14;96039.72;;;5.05;92.50
43486;BME280;30447;48.742;8.972;2024-03-25T07:08:40;96036.41;;;5.27;92.96
43486;BME280;30447;48.742;8.972;2024-03-25T07:11:07;96034.66;;;5.23;91.18
43486;BME280;30447;48.742;8.972;2024-03-25T07:13:33;96030.47;;;5.38;91.00
43486;BME280;30447;48.742;8.972;2024-03-25T07:16:00;96022.75;;;5.33;90.15
43486;BME280;30447;48.742;8.972;2024-03-25T07:18:26;96021.13;;;5.49;89.33
43486;BME280;30447;48.742;8.972;2024-03-25T07:20:53;96019.44;;;5.56;89.64
43486;BME280;30447;48.742;8.972;2024-03-25T07:23:20;96022.00;;;5.54;89.42
43486;BME280;30447;48.742;8.972;2024-03-25T07:25:47;96014.28;;;5.51;88.61
43486;BME280;30447;48.742;8.972;2024-03-25T07:28:13;96018.66;;;5.65;87.17
43486;BME280;30447;48.742;8.972;2024-03-25T07:30:40;96015.16;;;5.53;87.53
43486;BME280;30447;48.742;8.972;2024-03-25T07:33:06;96015.16;;;5.53;88.30
43486;BME280;30447;48.742;8.972;2024-03-25T07:35:33;96008.38;;;5.76;87.92
43486;BME280;30447;48.742;8.972;2024-03-25T07:38:00;95999.03;;;5.92;85.25
43486;BME280;30447;48.742;8.972;2024-03-25T07:40:26;96005.03;;;5.95;86.00
43486;BME280;30447;48.742;8.972;2024-03-25T07:42:53;96002.44;;;5.81;86.51
43486;BME280;30447;48.742;8.972;2024-03-25T07:45:19;96004.25;;;6.14;85.92
43486;BME280;30447;48.742;8.972;2024-03-25T07:47:46;96006.00;;;6.21;85.49
43486;BME280;30447;48.742;8.972;2024-03-25T07:50:13;96001.69;;;6.09;83.87
43486;BME280;30447;48.742;8.972;2024-03-25T07:52:39;96005.09;;;6.03;83.90
43486;BME280;30447;48.742;8.972;2024-03-25T07:55:09;96003.41;;;6.15;82.38
43486;BME280;30447;48.742;8.972;2024-03-25T07:57:36;96009.44;;;6.25;81.87
43486;BME280;30447;48.742;8.972;2024-03-25T08:00:03;96012.03;;;6.45;82.26
43486;BME280;30447;48.742;8.972;2024-03-25T08:02:35;96012.06;;;6.59;80.65
43486;BME280;30447;48.742;8.972;2024-03-25T08:05:02;96000.03;;;6.50;80.25
43486;BME280;30447;48.742;8.972;2024-03-25T08:07:29;96007.72;;;6.27;79.68
43486;BME280;30447;48.742;8.972;2024-03-25T08:09:55;96011.19;;;6.38;78.48
43486;BME280;30447;48.742;8.972;2024-03-25T08:12:22;96009.47;;;6.56;78.33
43486;BME280;30447;48.742;8.972;2024-03-25T08:14:48;96001.75;;;6.73;78.38
43486;BME280;30447;48.742;8.972;2024-03-25T08:17:15;95988.03;;;6.71;75.85
43486;BME280;30447;48.742;8.972;2024-03-25T08:19:42;95988.88;;;7.01;76.95
43486;BME280;30447;48.742;8.972;2024-03-25T08:22:08;95981.97;;;7.23;74.70
43486;BME280;30447;48.742;8.972;2024-03-25T08:24:35;95985.47;;;6.80;72.11
43486;BME280;30447;48.742;8.972;2024-03-25T08:27:01;95986.31;;;6.99;72.01
43486;BME280;30447;48.742;8.972;2024-03-25T08:29:29;95982.78;;;7.38;73.18
43486;BME280;30447;48.742;8.972;2024-03-25T08:31:55;95974.22;;;7.26;67.45
43486;BME280;30447;48.742;8.972;2024-03-25T08:34:22;95973.34;;;7.35;69.57
43486;BME280;30447;48.742;8.972;2024-03-25T08:36:49;95967.34;;;7.24;69.12
43486;BME280;30447;48.742;8.972;2024-03-25T08:39:15;95970.72;;;7.49;70.95
43486;BME280;30447;48.742;8.972;2024-03-25T08:41:42;95968.13;;;7.54;71.03
43486;BME280;30447;48.742;8.972;2024-03-25T08:44:08;95964.66;;;7.67;70.75
43486;BME280;30447;48.742;8.972;2024-03-25T08:46:35;95965.41;;;7.90;71.65
43486;BME280;30447;48.742;8.972;2024-03-25T08:49:02;95967.91;;;8.09;71.19
43486;BME280;30447;48.742;8.972;2024-03-25T08:51:28;95966.91;;;8.28;72.04
43486;BME280;30447;48.742;8.972;2024-03-25T08:53:55;95950.50;;;8.37;69.85
43486;BME280;30447;48.742;8.972;2024-03-25T08:56:21;95953.97;;;8.33;68.53
43486;BME280;30447;48.742;8.972;2024-03-25T08:58:48;95941.78;;;8.54;67.40
43486;BME280;30447;48.742;8.972;2024-03-25T09:01:15;95943.50;;;8.56;68.85
43486;BME280;30447;48.742;8.972;2024-03-25T09:03:42;95932.56;;;9.20;66.21
43486;BME280;30447;48.742;8.972;2024-03-25T09:06:08;95932.06;;;8.84;65.95
43486;BME280;30447;48.742;8.972;2024-03-25T09:08:35;95932.91;;;8.86;65.84
43486;BME280;30447;48.742;8.972;2024-03-25T09:11:22;95940.47;;;9.06;65.77
43486;BME280;30447;48.742;8.972;2024-03-25T09:13:51;95945.28;;;8.45;64.81
43486;BME280;30447;48.742;8.972;2024-03-25T09:16:17;95939.84;;;8.81;65.68
43486;BME280;30447;48.742;8.972;2024-03-25T09:18:44;95936.34;;;8.90;65.35
43486;BME280;30447;48.742;8.972;2024-03-25T09:21:11;95939.81;;;8.85;64.51
43486;BME280;30447;48.742;8.972;2024-03-25T09:23:39;95932.94;;;8.83;66.27
43486;BME280;30447;48.742;8.972;2024-03-25T09:26:05;95934.72;;;8.79;64.89
43486;BME280;30447;48.742;8.972;2024-03-25T09:28:32;95918.94;;;9.06;66.42
43486;BME280;30447;48.742;8.972;2024-03-25T09:30:58;95916.06;;;9.31;65.30
43486;BME280;30447;48.742;8.972;2024-03-25T09:33:25;95920.31;;;9.38;65.07
43486;BME280;30447;48.742;8.972;2024-03-25T09:35:52;95908.22;;;9.38;64.59
43486;BME280;30447;48.742;8.972;2024-03-25T09:38:18;95912.47;;;9.44;66.02
43486;BME280;30447;48.742;8.972;2024-03-25T09:40:45;95917.53;;;9.53;67.02
43486;BME280;30447;48.742;8.972;2024-03-25T09:43:18;95908.09;;;9.52;65.29
43486;BME280;30447;48.742;8.972;2024-03-25T09:45:50;95903.62;;;9.64;66.91
43486;BME280;30447;48.742;8.972;2024-03-25T09:48:21;95902.59;;;9.79;66.15
43486;BME280;30447;48.742;8.972;2024-03-25T09:50:50;95905.81;;;9.93;64.07
43486;BME280;30447;48.742;8.972;2024-03-25T09:53:19;95891.38;;;9.78;63.77
43486;BME280;30447;48.742;8.972;2024-03-25T09:55:48;95897.75;;;9.49;64.60
43486;BME280;30447;48.742;8.972;2024-03-25T09:58:18;95891.38;;;9.78;64.45
43486;BME280;30447;48.742;8.972;2024-03-25T10:00:46;95880.94;;;9.83;66.62
43486;BME280;30447;48.742;8.972;2024-03-25T10:03:13;95881.44;;;10.09;65.77
43486;BME280;30447;48.742;8.972;2024-03-25T10:05:40;95864.50;;;9.86;61.38
43486;BME280;30447;48.742;8.972;2024-03-25T10:08:08;95868.25;;;10.24;60.93
43486;BME280;30447;48.742;8.972;2024-03-25T10:10:34;95860.75;;;10.07;60.45
43486;BME280;30447;48.742;8.972;2024-03-25T10:13:04;95852.13;;;9.45;59.79
43486;BME280;30447;48.742;8.972;2024-03-25T10:15:32;95851.44;;;9.32;62.56
43486;BME280;30447;48.742;8.972;2024-03-25T10:17:59;95845.00;;;9.63;61.06
43486;BME280;30447;48.742;8.972;2024-03-25T10:20:25;95837.91;;;9.77;61.66
43486;BME280;30447;48.742;8.972;2024-03-25T10:22:52;95832.84;;;9.70;60.50
43486;BME280;30447;48.742;8.972;2024-03-25T10:27:58;95830.63;;;9.42;61.52
43486;BME280;30447;48.742;8.972;2024-03-25T10:30:29;95823.84;;;9.34;61.36
43486;BME280;30447;48.742;8.972;2024-03-25T10:33:00;95830.38;;;9.62;63.71
43486;BME280;30447;48.742;8.972;2024-03-25T10:35:35;95818.66;;;9.96;63.02
43486;BME280;30447;48.742;8.972;2024-03-25T10:38:05;95821.91;;;10.10;59.90
43486;BME280;30447;48.742;8.972;2024-03-25T10:40:38;95818.28;;;10.19;60.68
43486;BME280;30447;48.742;8.972;2024-03-25T10:43:07;95819.56;;;9.95;58.88
43486;BME280;30447;48.742;8.972;2024-03-25T10:45:38;95824.53;;;10.05;59.85
43486;BME280;30447;48.742;8.972;2024-03-25T10:48:27;95818.00;;;10.38;59.91
43486;BME280;30447;48.742;8.972;2024-03-25T10:50:56;95814.75;;;10.25;63.51
43486;BME280;30447;48.742;8.972;2024-03-25T10:53:24;95811.81;;;10.47;61.53
43486;BME280;30447;48.742;8.972;2024-03-25T10:55:55;95808.44;;;10.44;62.12
43486;BME280;30447;48.742;8.972;2024-03-25T10:58:23;95806.66;;;10.45;61.51
43486;BME280;30447;48.742;8.972;2024-03-25T11:00:52;95798.25;;;10.30;62.94
43486;BME280;30447;48.742;8.972;2024-03-25T11:03:23;95799.78;;;10.42;61.99
43486;BME280;30447;48.742;8.972;2024-03-25T11:05:51;95793.72;;;10.45;60.15
43486;BME280;30447;48.742;8.972;2024-03-25T11:08:18;95781.91;;;10.28;58.78
43486;BME280;30447;48.742;8.972;2024-03-25T11:10:46;95782.84;;;10.75;57.94
43486;BME280;30447;48.742;8.972;2024-03-25T11:13:16;95779.06;;;10.42;57.62
43486;BME280;30447;48.742;8.972;2024-03-25T11:15:45;95769.41;;;10.00;58.27
43486;BME280;30447;48.742;8.972;2024-03-25T11:18:15;95767.59;;;10.05;60.00
43486;BME280;30447;48.742;8.972;2024-03-25T11:20:43;95757.28;;;10.04;58.40
43486;BME280;30447;48.742;8.972;2024-03-25T11:23:14;95757.72;;;10.28;58.42
43486;BME280;30447;48.742;8.972;2024-03-25T11:25:41;95756.81;;;10.32;58.26
43486;BME280;30447;48.742;8.972;2024-03-25T11:28:09;95759.50;;;10.26;58.59
43486;BME280;30447;48.742;8.972;2024-03-25T11:30:36;95750.13;;;10.67;58.72
43486;BME280;30447;48.742;8.972;2024-03-25T11:33:04;95753.47;;;10.74;60.56
43486;BME280;30447;48.742;8.972;2024-03-25T11:35:37;95741.56;;;10.65;59.01
43486;BME280;30447;48.742;8.972;2024-03-25T11:38:04;95730.19;;;11.15;58.99
43486;BME280;30447;48.742;8.972;2024-03-25T11:40:31;95729.22;;;10.77;57.79
43486;BME280;30447;48.742;8.972;2024-03-25T11:42:59;95715.03;;;10.95;58.21
43486;BME280;30447;48.742;8.972;2024-03-25T11:45:25;95711.78;;;11.26;61.80
43486;BME280;30447;48.742;8.972;2024-03-25T11:47:52;95705.72;;;11.27;59.29
43486;BME280;30447;48.742;8.972;2024-03-25T11:50:19;95705.19;;;11.50;62.40
43486;BME280;30447;48.742;8.972;2024-03-25T11:52:46;95703.75;;;11.75;62.60
43486;BME280;30447;48.742;8.972;2024-03-25T11:55:17;95703.69;;;11.78;60.48
43486;BME280;30447;48.742;8.972;2024-03-25T11:57:44;95705.06;;;11.91;60.95
43486;BME280;30447;48.742;8.972;2024-03-25T12:00:11;95692.88;;;11.95;60.48
43486;BME280;30447;48.742;8.972;2024-03-25T12:02:45;95691.84;;;12.01;56.91
43486;BME280;30447;48.742;8.972;2024-03-25T12:05:12;95683.53;;;12.23;60.91
43486;BME280;30447;48.742;8.972;2024-03-25T12:07:39;95683.69;;;12.50;61.91
43486;BME280;30447;48.742;8.972;2024-03-25T12:10:06;95678.53;;;12.48;60.30
43486;BME280;30447;48.742;8.972;2024-03-25T12:12:51;95674.91;;;12.54;59.32
43486;BME280;30447;48.742;8.972;2024-03-25T12:15:19;95671.87;;;12.38;59.83
43486;BME280;30447;48.742;8.972;2024-03-25T12:17:47;95657.66;;;12.20;56.06
43486;BME280;30447;48.742;8.972;2024-03-25T12:20:14;95647.06;;;12.27;56.27
43486;BME280;30447;48.742;8.972;2024-03-25T12:22:41;95646.84;;;12.35;57.79
43486;BME280;30447;48.742;8.972;2024-03-25T12:25:08;95645.31;;;12.28;58.42
43486;BME280;30447;48.742;8.972;2024-03-25T12:27:36;95633.72;;;12.08;60.25
43486;BME280;30447;48.742;8.972;2024-03-25T12:32:41;95614.72;;;12.38;57.25
43486;BME280;30447;48.742;8.972;2024-03-25T12:35:10;95618.69;;;12.51;55.37
43486;BME280;30447;48.742;8.972;2024-03-25T12:37:43;95622.69;;;12.63;55.75
43486;BME280;30447;48.742;8.972;2024-03-25T12:40:25;95613.69;;;12.13;54.60
43486;BME280;30447;48.742;8.972;2024-03-25T12:42:53;95604.38;;;12.36;56.02
43486;BME280;30447;48.742;8.972;2024-03-25T12:45:21;95595.69;;;12.37;57.23
43486;BME280;30447;48.742;8.972;2024-03-25T12:47:52;95592.22;;;12.38;57.14
43486;BME280;30447;48.742;8.972;2024-03-25T12:50:19;95595.81;;;12.33;56.02
43486;BME280;30447;48.742;8.972;2024-03-25T12:52:47;95586.13;;;12.39;55.37
43486;BME280;30447;48.742;8.972;2024-03-25T12:55:13;95581.56;;;12.48;55.55
43486;BME280;30447;48.742;8.972;2024-03-25T12:57:40;95582.59;;;12.42;55.14
43486;BME280;30447;48.742;8.972;2024-03-25T13:00:08;95576.94;;;11.94;55.18
43486;BME280;30447;48.742;8.972;2024-03-25T13:02:35;95578.66;;;11.95;54.21
43486;BME280;30447;48.742;8.972;2024-03-25T13:05:02;95562.50;;;12.17;54.69
43486;BME280;30447;48.742;8.972;2024-03-25T13:07:30;95559.88;;;12.19;53.88
43486;BME280;30447;48.742;8.972;2024-03-25T13:09:58;95554.00;;;11.45;53.46
43486;BME280;30447;48.742;8.972;2024-03-25T13:12:24;95554.28;;;11.99;54.89
43486;BME280;30447;48.742;8.972;2024-03-25T13:14:51;95554.00;;;12.12;57.11
43486;BME280;30447;48.742;8.972;2024-03-25T13:17:17;95559.44;;;12.34;55.89